Time,TemperatureF,DewpointF,PressureIn,WindDirection,WindDirectionDegrees,WindSpeedMPH,WindSpeedGustMPH,Humidity,HourlyPrecipIn,Conditions,Clouds,dailyrainin,SoftwareType,DateUTC
2013-09-05 00:13:00,57.0,56.0,30.14,North,5,0.0,0.0,96,0.00,,,0.00,,2013-09-05 04:13:00,
2013-09-05 00:24:00,57.0,56.0,30.14,North,6,0.0,0.0,97,0.00,,,0.00,,2013-09-05 04:24:00,
2013-09-05 00:44:00,57.0,56.0,30.14,North,6,0.0,0.0,96,0.00,,,0.00,,2013-09-05 04:44:00,
2013-09-05 00:53:00,57.0,56.0,30.14,North,5,0.0,0.0,97,0.00,,,0.00,,2013-09-05 04:53:00,
2013-09-05 01:13:00,57.0,56.0,30.14,North,6,0.0,0.0,97,0.00,,,0.00,,2013-09-05 05:13:00,
2013-09-05 01:23:00,56.0,55.0,30.15,North,6,0.0,0.0,96,0.00,,,0.00,,2013-09-05 05:23:00,
2013-09-05 01:43:00,56.0,55.0,30.15,North,5,0.0,0.0,97,0.00,,,0.00,,2013-09-05 05:43:00,
2013-09-05 01:52:00,56.0,55.0,30.14,North,6,0.0,0.0,97,0.00,,,0.00,,2013-09-05 05:52:00,
2013-09-05 02:13:00,56.0,55.0,30.14,North,6,0.0,0.0,97,0.00,,,0.00,,2013-09-05 06:13:00,
2013-09-05 02:22:00,56.0,55.0,30.15,North,5,0.0,0.0,97,0.00,,,0.00,,2013-09-05 06:22:00,
2013-09-05 02:42:00,56.0,55.0,30.15,North,5,0.0,0.0,98,0.00,,,0.00,,2013-09-05 06:42:00,
2013-09-05 02:52:00,56.0,55.0,30.15,North,5,0.0,0.0,98,0.00,,,0.00,,2013-09-05 06:52:00,
2013-09-05 03:12:00,56.0,55.0,30.15,North,5,0.0,0.0,98,0.00,,,0.00,,2013-09-05 07:12:00,
2013-09-05 03:23:00,56.0,55.0,30.16,North,5,0.0,0.0,98,0.00,,,0.00,,2013-09-05 07:23:00,
2013-09-05 03:42:00,56.0,55.0,30.16,North,5,0.0,0.0,98,0.00,,,0.00,,2013-09-05 07:42:00,
2013-09-05 03:52:00,56.0,55.0,30.16,North,5,0.0,0.0,98,0.00,,,0.00,,2013-09-05 07:52:00,
2013-09-05 04:12:00,56.0,55.0,30.16,North,5,0.0,0.0,98,0.00,,,0.00,,2013-09-05 08:12:00,
2013-09-05 04:22:00,56.0,55.0,30.16,North,5,0.0,0.0,98,0.00,,,0.00,,2013-09-05 08:22:00,
2013-09-05 04:42:00,56.0,55.0,30.16,North,5,0.0,0.0,98,0.00,,,0.00,,2013-09-05 08:42:00,
2013-09-05 04:52:00,56.0,55.0,30.16,North,5,0.0,0.0,98,0.00,,,0.00,,2013-09-05 08:52:00,
2013-09-05 05:11:00,56.0,55.0,30.16,North,5,0.0,0.0,98,0.00,,,0.00,,2013-09-05 09:11:00,
2013-09-05 05:22:00,56.0,55.0,30.16,North,5,0.0,0.0,98,0.00,,,0.00,,2013-09-05 09:22:00,
2013-09-05 05:43:00,56.0,55.0,30.18,North,5,0.0,0.0,98,0.00,,,0.00,,2013-09-05 09:43:00,
2013-09-05 05:54:00,55.0,54.0,30.18,North,5,0.0,0.0,98,0.00,,,0.00,,2013-09-05 09:54:00,
2013-09-05 06:12:00,56.0,56.0,30.18,North,6,0.0,0.0,99,0.00,,,0.00,,2013-09-05 10:12:00,
2013-09-05 06:23:00,56.0,56.0,30.18,North,5,0.0,0.0,99,0.00,,,0.00,,2013-09-05 10:23:00,
2013-09-05 06:43:00,56.0,55.0,30.19,North,5,0.0,1.0,98,0.00,,,0.00,,2013-09-05 10:43:00,
2013-09-05 06:53:00,56.0,56.0,30.19,North,5,0.0,0.0,99,0.00,,,0.00,,2013-09-05 10:53:00,
2013-09-05 07:12:00,56.0,56.0,30.19,North,5,0.0,0.0,99,0.00,,,0.00,,2013-09-05 11:12:00,
2013-09-05 07:22:00,55.0,54.0,30.20,North,5,0.0,0.0,98,0.00,,,0.00,,2013-09-05 11:22:00,
2013-09-05 07:42:00,55.0,54.0,30.21,North,5,0.0,0.0,98,0.00,,,0.00,,2013-09-05 11:42:00,
2013-09-05 07:52:00,56.0,56.0,30.22,North,5,0.0,0.0,99,0.00,,,0.00,,2013-09-05 11:52:00,
2013-09-05 08:13:00,58.0,58.0,30.22,North,6,0.0,0.0,99,0.00,,,0.00,,2013-09-05 12:13:00,
2013-09-05 08:22:00,59.0,59.0,30.22,North,6,0.0,0.0,99,0.00,,,0.00,,2013-09-05 12:22:00,
2013-09-05 08:42:00,60.0,60.0,30.22,North,6,0.0,0.0,99,0.00,,,0.00,,2013-09-05 12:42:00,
2013-09-05 08:52:00,61.0,59.0,30.23,North,6,0.0,0.0,94,0.00,,,0.00,,2013-09-05 12:52:00,
2013-09-05 09:12:00,62.0,59.0,30.23,North,6,0.0,0.0,90,0.00,,,0.00,,2013-09-05 13:12:00,
2013-09-05 09:22:00,62.0,56.0,30.23,ESE,116,0.0,1.0,82,0.00,,,0.00,,2013-09-05 13:22:00,
2013-09-05 09:42:00,63.0,56.0,30.23,SE,126,0.0,1.0,79,0.00,,,0.00,,2013-09-05 13:42:00,
2013-09-05 09:53:00,63.0,54.0,30.23,SE,126,0.0,1.0,72,0.00,,,0.00,,2013-09-05 13:53:00,
2013-09-05 10:12:00,64.0,54.0,30.24,WSW,240,0.0,1.0,69,0.00,,,0.00,,2013-09-05 14:12:00,
2013-09-05 10:22:00,65.0,55.0,30.24,WSW,240,0.0,0.0,69,0.00,,,0.00,,2013-09-05 14:22:00,
2013-09-05 10:42:00,66.0,53.0,30.25,ESE,122,0.0,1.0,63,0.00,,,0.00,,2013-09-05 14:42:00,
2013-09-05 10:52:00,66.0,53.0,30.25,East,81,0.0,1.0,62,0.00,,,0.00,,2013-09-05 14:52:00,
2013-09-05 11:11:00,66.0,51.0,30.26,ESE,110,0.0,1.0,59,0.00,,,0.00,,2013-09-05 15:11:00,
2013-09-05 11:22:00,67.0,50.0,30.26,NE,40,0.0,1.0,55,0.00,,,0.00,,2013-09-05 15:22:00,
2013-09-05 11:44:00,68.0,53.0,30.26,NNE,32,0.0,1.0,59,0.00,,,0.00,,2013-09-05 15:44:00,
2013-09-05 11:54:00,69.0,52.0,30.27,NE,47,0.0,2.0,55,0.00,,,0.00,,2013-09-05 15:54:00,
2013-09-05 12:13:00,69.0,51.0,30.27,NNE,14,1.0,2.0,52,0.00,,,0.00,,2013-09-05 16:13:00,
2013-09-05 12:24:00,70.0,52.0,30.27,North,4,0.0,2.0,52,0.00,,,0.00,,2013-09-05 16:24:00,
2013-09-05 12:43:00,71.0,54.0,30.27,North,5,0.0,1.0,54,0.00,,,0.00,,2013-09-05 16:43:00,
2013-09-05 12:54:00,72.0,53.0,30.26,NE,37,0.0,2.0,51,0.00,,,0.00,,2013-09-05 16:54:00,
2013-09-05 13:12:00,73.0,54.0,30.26,NNE,31,0.0,2.0,51,0.00,,,0.00,,2013-09-05 17:12:00,
2013-09-05 13:23:00,74.0,52.0,30.27,North,3,0.0,4.0,47,0.00,,,0.00,,2013-09-05 17:23:00,
2013-09-05 13:43:00,75.0,52.0,30.26,North,352,2.0,5.0,44,0.00,,,0.00,,2013-09-05 17:43:00,
2013-09-05 13:52:00,76.0,53.0,30.26,WSW,249,0.0,2.0,45,0.00,,,0.00,,2013-09-05 17:52:00,
2013-09-05 14:12:00,76.0,54.0,30.26,SW,235,1.0,5.0,47,0.00,,,0.00,,2013-09-05 18:12:00,
2013-09-05 14:22:00,77.0,52.0,30.25,SE,143,0.0,1.0,42,0.00,,,0.00,,2013-09-05 18:22:00,
2013-09-05 14:52:00,77.0,52.0,30.24,NW,317,2.0,5.0,42,0.00,,,0.00,,2013-09-05 18:52:00,
2013-09-05 15:11:00,75.0,55.0,30.24,NNE,17,1.0,9.0,49,0.00,,,0.00,,2013-09-05 19:11:00,
2013-09-05 15:22:00,77.0,55.0,30.23,SSE,150,0.0,1.0,47,0.00,,,0.00,,2013-09-05 19:22:00,
2013-09-05 15:42:00,78.0,55.0,30.23,NE,39,0.0,4.0,45,0.00,,,0.00,,2013-09-05 19:42:00,
2013-09-05 15:52:00,76.0,54.0,30.23,NW,316,2.0,9.0,47,0.00,,,0.00,,2013-09-05 19:52:00,
2013-09-05 16:11:00,78.0,55.0,30.23,ESE,113,0.0,2.0,45,0.00,,,0.00,,2013-09-05 20:11:00,
2013-09-05 16:22:00,79.0,53.0,30.22,NW,314,1.0,3.0,41,0.00,,,0.00,,2013-09-05 20:22:00,
2013-09-05 16:52:00,82.0,55.0,30.22,North,7,1.0,2.0,40,0.00,,,0.00,,2013-09-05 20:52:00,
2013-09-05 17:12:00,82.0,52.0,30.22,NNW,340,1.0,2.0,35,0.00,,,0.00,,2013-09-05 21:12:00,
2013-09-05 17:22:00,83.0,54.0,30.22,NNE,21,0.0,2.0,37,0.00,,,0.00,,2013-09-05 21:22:00,
2013-09-05 17:54:00,84.0,51.0,30.22,North,8,0.0,2.0,32,0.00,,,0.00,,2013-09-05 21:54:00,
2013-09-05 18:43:00,83.0,46.0,30.22,NW,311,0.0,2.0,27,0.00,,,0.00,,2013-09-05 22:43:00,
2013-09-05 19:22:00,82.0,45.0,30.22,NE,50,0.0,1.0,27,0.00,,,0.00,,2013-09-05 23:22:00,
2013-09-05 19:42:00,81.0,44.0,30.21,NE,50,0.0,1.0,27,0.00,,,0.00,,2013-09-05 23:42:00,
2013-09-05 19:53:00,80.0,47.0,30.21,NE,53,0.0,1.0,32,0.00,,,0.00,,2013-09-05 23:53:00,
2013-09-05 20:12:00,79.0,47.0,30.21,NE,53,0.0,1.0,33,0.00,,,0.00,,2013-09-06 00:12:00,
2013-09-05 20:22:00,76.0,52.0,30.22,NE,53,0.0,0.0,44,0.00,,,0.00,,2013-09-06 00:22:00,
2013-09-05 20:42:00,72.0,49.0,30.22,NE,53,0.0,0.0,45,0.00,,,0.00,,2013-09-06 00:42:00,
2013-09-05 20:52:00,69.0,50.0,30.22,NE,53,0.0,0.0,51,0.00,,,0.00,,2013-09-06 00:52:00,
2013-09-05 21:11:00,67.0,50.0,30.22,NE,53,0.0,1.0,55,0.00,,,0.00,,2013-09-06 01:11:00,
2013-09-05 21:22:00,65.0,48.0,30.23,NE,53,0.0,0.0,55,0.00,,,0.00,,2013-09-06 01:22:00,
2013-09-05 21:42:00,64.0,49.0,30.23,NE,53,0.0,0.0,58,0.00,,,0.00,,2013-09-06 01:42:00,
2013-09-05 21:52:00,63.0,48.0,30.24,NE,53,0.0,0.0,57,0.00,,,0.00,,2013-09-06 01:52:00,
2013-09-05 22:12:00,62.0,47.0,30.24,NE,53,0.0,0.0,59,0.00,,,0.00,,2013-09-06 02:12:00,
2013-09-05 22:22:00,62.0,50.0,30.24,NE,53,0.0,0.0,65,0.00,,,0.00,,2013-09-06 02:22:00,
2013-09-05 22:42:00,61.0,47.0,30.24,NE,53,0.0,0.0,60,0.00,,,0.00,,2013-09-06 02:42:00,
2013-09-05 22:52:00,61.0,49.0,30.25,NE,53,0.0,0.0,65,0.00,,,0.00,,2013-09-06 02:52:00,
2013-09-05 23:11:00,60.0,49.0,30.25,NE,53,0.0,0.0,66,0.00,,,0.00,,2013-09-06 03:11:00,
2013-09-05 23:22:00,60.0,49.0,30.25,NE,53,0.0,0.0,68,0.00,,,0.00,,2013-09-06 03:22:00,
2013-09-05 23:55:00,60.0,50.0,30.25,NE,53,0.0,0.0,69,0.00,,,0.00,,2013-09-06 03:55:00,